sensor_id;sensor_type;location;lat;lon;timestamp;pressure;altitude;pressure_sealevel;temperature;humidity
9738;BME280;4908;47.446;13.900;2023-08-30T00:01:13;92101.84;;;10.91;100.00
9738;BME280;4908;47.446;13.900;2023-08-30T00:03:40;92103.34;;;10.96;100.00
9738;BME280;4908;47.446;13.900;2023-08-30T00:06:07;92108.66;;;10.99;100.00
9738;BME280;4908;47.446;13.900;2023-08-30T00:08:34;92108.31;;;10.97;100.00
9738;BME280;4908;47.446;13.900;2023-08-30T00:11:02;92107.44;;;11.04;100.00
9738;BME280;4908;47.446;13.900;2023-08-30T00:13:30;92109.44;;;10.96;100.00
9738;BME280;4908;47.446;13.900;2023-08-30T00:15:58;92105.72;;;10.87;100.00
9738;BME280;4908;47.446;13.900;2023-08-30T00:18:29;92106.50;;;10.87;100.00
9738;BME280;4908;47.446;13.900;2023-08-30T00:20:56;92113.25;;;10.61;100.00
9738;BME280;4908;47.446;13.900;2023-08-30T00:23:23;92108.69;;;10.58;100.00
9738;BME280;4908;47.446;13.900;2023-08-30T00:25:51;92110.09;;;10.70;100.00
9738;BME280;4908;47.446;13.900;2023-08-30T00:28:18;92108.16;;;10.74;100.00
9738;BME280;4908;47.446;13.900;2023-08-30T00:30:45;92105.03;;;10.79;100.00
9738;BME280;4908;47.446;13.900;2023-08-30T00:33:12;92106.94;;;10.82;100.00
9738;BME280;4908;47.446;13.900;2023-08-30T00:35:41;92110.34;;;10.82;100.00
9738;BME280;4908;47.446;13.900;2023-08-30T00:38:08;92112.72;;;10.77;100.00
9738;BME280;4908;47.446;13.900;2023-08-30T00:40:38;92104.25;;;10.82;100.00
9738;BME280;4908;47.446;13.900;2023-08-30T00:43:06;92108.88;;;10.78;100.00
9738;BME280;4908;47.446;13.900;2023-08-30T00:45:34;92103.34;;;10.58;100.00
9738;BME280;4908;47.446;13.900;2023-08-30T00:48:05;92111.25;;;10.69;100.00
9738;BME280;4908;47.446;13.900;2023-08-30T00:50:33;92106.25;;;10.71;100.00
9738;BME280;4908;47.446;13.900;2023-08-30T00:53:03;92115.22;;;10.54;100.00
9738;BME280;4908;47.446;13.900;2023-08-30T00:55:31;92109.69;;;10.71;100.00
9738;BME280;4908;47.446;13.900;2023-08-30T00:58:00;92104.44;;;10.64;100.00
9738;BME280;4908;47.446;13.900;2023-08-30T01:00:27;92098.38;;;10.57;100.00
9738;BME280;4908;47.446;13.900;2023-08-30T01:02:55;92102.84;;;10.67;100.00
9738;BME280;4908;47.446;13.900;2023-08-30T01:05:22;92104.25;;;10.82;100.00
9738;BME280;4908;47.446;13.900;2023-08-30T01:07:50;92113.66;;;10.97;100.00
9738;BME280;4908;47.446;13.900;2023-08-30T01:10:22;92115.25;;;10.91;100.00
9738;BME280;4908;47.446;13.900;2023-08-30T01:12:57;92113.25;;;10.99;100.00
9738;BME280;4908;47.446;13.900;2023-08-30T01:15:28;92109.53;;;10.89;100.00
9738;BME280;4908;47.446;13.900;2023-08-30T01:17:56;92112.66;;;10.84;100.00
9738;BME280;4908;47.446;13.900;2023-08-30T01:20:26;92109.88;;;10.91;100.00
9738;BME280;4908;47.446;13.900;2023-08-30T01:22:59;92114.16;;;10.85;100.00
9738;BME280;4908;47.446;13.900;2023-08-30T01:25:50;92117.97;;;10.88;100.00
9738;BME280;4908;47.446;13.900;2023-08-30T01:28:23;92115.69;;;10.86;100.00
9738;BME280;4908;47.446;13.900;2023-08-30T01:30:52;92118.97;;;10.63;100.00
9738;BME280;4908;47.446;13.900;2023-08-30T01:33:21;92103.06;;;10.46;100.00
9738;BME280;4908;47.446;13.900;2023-08-30T01:35:49;92110.94;;;10.63;100.00
9738;BME280;4908;47.446;13.900;2023-08-30T01:38:17;92110.03;;;10.77;100.00
9738;BME280;4908;47.446;13.900;2023-08-30T01:40:45;92103.09;;;10.83;100.00
9738;BME280;4908;47.446;13.900;2023-08-30T01:43:14;92107.38;;;10.73;100.00
9738;BME280;4908;47.446;13.900;2023-08-30T01:45:44;92106.66;;;10.69;100.00
9738;BME280;4908;47.446;13.900;2023-08-30T01:48:13;92105.75;;;10.83;100.00
9738;BME280;4908;47.446;13.900;2023-08-30T01:50:42;92109.75;;;10.68;100.00
9738;BME280;4908;47.446;13.900;2023-08-30T01:53:11;92103.53;;;10.78;100.00
9738;BME280;4908;47.446;13.900;2023-08-30T01:55:39;92103.44;;;10.85;100.00
9738;BME280;4908;47.446;13.900;2023-08-30T01:58:06;92113.34;;;10.88;100.00
9738;BME280;4908;47.446;13.900;2023-08-30T02:00:34;92108.34;;;10.90;100.00
9738;BME280;4908;47.446;13.900;2023-08-30T02:03:09;92111.75;;;10.94;100.00
9738;BME280;4908;47.446;13.900;2023-08-30T02:05:39;92113.50;;;10.74;100.00
9738;BME280;4908;47.446;13.900;2023-08-30T02:08:13;92109.22;;;10.83;100.00
9738;BME280;4908;47.446;13.900;2023-08-30T02:10:52;92105.69;;;10.90;100.00
9738;BME280;4908;47.446;13.900;2023-08-30T02:13:26;92104.16;;;10.89;100.00
9738;BME280;4908;47.446;13.900;2023-08-30T02:15:55;92105.69;;;10.90;100.00
9738;BME280;4908;47.446;13.900;2023-08-30T02:18:25;92095.72;;;10.91;100.00
9738;BME280;4908;47.446;13.900;2023-08-30T02:20:53;92098.63;;;10.69;100.00
9738;BME280;4908;47.446;13.900;2023-08-30T02:23:23;92095.13;;;10.76;100.00
9738;BME280;4908;47.446;13.900;2023-08-30T02:25:51;92097.31;;;10.84;100.00
9738;BME280;4908;47.446;13.900;2023-08-30T02:28:18;92100.31;;;10.94;100.00
9738;BME280;4908;47.446;13.900;2023-08-30T02:30:45;92101.84;;;10.91;100.00
9738;BME280;4908;47.446;13.900;2023-08-30T02:33:12;92099.28;;;10.80;100.00
9738;BME280;4908;47.446;13.900;2023-08-30T02:35:41;92103.00;;;10.90;100.00
9738;BME280;4908;47.446;13.900;2023-08-30T02:38:08;92104.97;;;10.86;100.00
9738;BME280;4908;47.446;13.900;2023-08-30T02:40:35;92105.03;;;10.79;100.00
9738;BME280;4908;47.446;13.900;2023-08-30T02:43:03;92096.78;;;10.63;100.00
9738;BME280;4908;47.446;13.900;2023-08-30T02:45:30;92106.31;;;10.67;100.00
9738;BME280;4908;47.446;13.900;2023-08-30T02:47:57;92108.94;;;10.71;100.00
9738;BME280;4908;47.446;13.900;2023-08-30T02:50:24;92102.41;;;10.75;100.00
9738;BME280;4908;47.446;13.900;2023-08-30T02:52:53;92098.91;;;10.82;100.00
9738;BME280;4908;47.446;13.900;2023-08-30T02:55:20;92091.28;;;10.77;100.00
9738;BME280;4908;47.446;13.900;2023-08-30T02:57:47;92094.69;;;10.81;100.00
9738;BME280;4908;47.446;13.900;2023-08-30T03:00:15;92094.44;;;10.65;100.00
9738;BME280;4908;47.446;13.900;2023-08-30T03:02:43;92095.91;;;10.73;100.00
9738;BME280;4908;47.446;13.900;2023-08-30T03:05:10;92107.72;;;10.79;100.00
9738;BME280;4908;47.446;13.900;2023-08-30T03:07:37;92110.38;;;10.79;100.00
9738;BME280;4908;47.446;13.900;2023-08-30T03:10:07;92096.59;;;10.80;100.00
9738;BME280;4908;47.446;13.900;2023-08-30T03:12:34;92100.34;;;10.87;100.00
9738;BME280;4908;47.446;13.900;2023-08-30T03:15:01;92102.63;;;10.92;100.00
9738;BME280;4908;47.446;13.900;2023-08-30T03:17:29;92091.25;;;10.80;100.00
9738;BME280;4908;47.446;13.900;2023-08-30T03:19:56;92091.91;;;10.88;100.00
9738;BME280;4908;47.446;13.900;2023-08-30T03:22:24;92100.69;;;10.92;100.00
9738;BME280;4908;47.446;13.900;2023-08-30T03:24:51;92101.03;;;10.94;100.00
9738;BME280;4908;47.446;13.900;2023-08-30T03:27:19;92099.84;;;10.99;100.00
9738;BME280;4908;47.446;13.900;2023-08-30T03:29:47;92088.00;;;11.00;100.00
9738;BME280;4908;47.446;13.900;2023-08-30T03:32:17;92089.72;;;10.79;100.00
9738;BME280;4908;47.446;13.900;2023-08-30T03:34:44;92095.25;;;10.62;100.00
9738;BME280;4908;47.446;13.900;2023-08-30T03:37:12;92097.53;;;10.63;100.00
9738;BME280;4908;47.446;13.900;2023-08-30T03:39:40;92096.78;;;10.63;100.00
9738;BME280;4908;47.446;13.900;2023-08-30T03:42:07;92098.16;;;10.78;100.00
9738;BME280;4908;47.446;13.900;2023-08-30T03:44:37;92100.84;;;10.78;100.00
9738;BME280;4908;47.446;13.900;2023-08-30T03:47:04;92101.91;;;10.88;100.00
9738;BME280;4908;47.446;13.900;2023-08-30T03:49:32;92105.75;;;10.83;100.00
9738;BME280;4908;47.446;13.900;2023-08-30T03:51:59;92096.53;;;10.88;100.00
9738;BME280;4908;47.446;13.900;2023-08-30T03:54:26;92110.28;;;10.90;100.00
9738;BME280;4908;47.446;13.900;2023-08-30T03:56:53;92104.25;;;10.82;100.00
9738;BME280;4908;47.446;13.900;2023-08-30T03:59:21;92107.72;;;10.79;100.00
9738;BME280;4908;47.446;13.900;2023-08-30T04:01:50;92109.53;;;10.89;100.00
9738;BME280;4908;47.446;13.900;2023-08-30T04:04:18;92106.25;;;10.71;100.00
9738;BME280;4908;47.446;13.900;2023-08-30T04:06:45;92109.25;;;10.80;100.00
9738;BME280;4908;47.446;13.900;2023-08-30T04:09:12;92110.63;;;10.54;100.00
9738;BME280;4908;47.446;13.900;2023-08-30T04:11:39;92112.06;;;10.66;100.00
9738;BME280;4908;47.446;13.900;2023-08-30T04:14:07;92102.06;;;10.70;100.00
9738;BME280;4908;47.446;13.900;2023-08-30T04:16:35;92108.28;;;10.60;100.00
9738;BME280;4908;47.446;13.900;2023-08-30T04:19:03;92112.53;;;10.54;100.00
9738;BME280;4908;47.446;13.900;2023-08-30T04:21:30;92118.97;;;10.63;100.00
9738;BME280;4908;47.446;13.900;2023-08-30T04:23:58;92113.78;;;10.83;100.00
9738;BME280;4908;47.446;13.900;2023-08-30T04:26:25;92110.59;;;10.58;100.00
9738;BME280;4908;47.446;13.900;2023-08-30T04:28:52;92115.09;;;10.68;100.00
9738;BME280;4908;47.446;13.900;2023-08-30T04:31:19;92127.84;;;10.57;100.00
9738;BME280;4908;47.446;13.900;2023-08-30T04:33:46;92128.53;;;10.64;100.00
9738;BME280;4908;47.446;13.900;2023-08-30T04:36:15;92122.69;;;10.73;100.00
9738;BME280;4908;47.446;13.900;2023-08-30T04:38:42;92124.28;;;10.67;100.00
9738;BME280;4908;47.446;13.900;2023-08-30T04:41:09;92130.44;;;10.64;100.00
9738;BME280;4908;47.446;13.900;2023-08-30T04:43:36;92133.81;;;10.71;100.00
9738;BME280;4908;47.446;13.900;2023-08-30T04:46:04;92130.09;;;10.58;100.00
9738;BME280;4908;47.446;13.900;2023-08-30T04:48:31;92123.53;;;10.63;100.00
9738;BME280;4908;47.446;13.900;2023-08-30T04:51:00;92123.63;;;10.56;100.00
9738;BME280;4908;47.446;13.900;2023-08-30T04:53:30;92118.50;;;10.72;100.00
9738;BME280;4908;47.446;13.900;2023-08-30T04:55:57;92118.00;;;10.84;100.00
9738;BME280;4908;47.446;13.900;2023-08-30T04:58:24;92118.66;;;10.95;100.00
9738;BME280;4908;47.446;13.900;2023-08-30T05:00:51;92114.81;;;10.96;100.00
9738;BME280;4908;47.446;13.900;2023-08-30T05:03:18;92122.41;;;11.01;100.00
9738;BME280;4908;47.446;13.900;2023-08-30T05:05:46;92118.56;;;11.02;100.00
9738;BME280;4908;47.446;13.900;2023-08-30T05:08:13;92117.34;;;11.10;100.00
9738;BME280;4908;47.446;13.900;2023-08-30T05:10:42;92126.78;;;11.22;100.00
9738;BME280;4908;47.446;13.900;2023-08-30T05:13:15;92121.41;;;11.22;100.00
9738;BME280;4908;47.446;13.900;2023-08-30T05:15:42;92118.47;;;11.13;100.00
9738;BME280;4908;47.446;13.900;2023-08-30T05:18:09;92116.38;;;11.27;100.00
9738;BME280;4908;47.446;13.900;2023-08-30T05:20:37;92115.28;;;11.21;100.00
9738;BME280;4908;47.446;13.900;2023-08-30T05:23:04;92118.31;;;11.27;100.00
9738;BME280;4908;47.446;13.900;2023-08-30T05:25:31;92123.25;;;11.28;100.00
9738;BME280;4908;47.446;13.900;2023-08-30T05:28:00;92115.19;;;11.32;100.00
9738;BME280;4908;47.446;13.900;2023-08-30T05:30:27;92119.72;;;11.35;100.00
9738;BME280;4908;47.446;13.900;2023-08-30T05:32:54;92108.13;;;11.45;100.00
9738;BME280;4908;47.446;13.900;2023-08-30T05:35:21;92110.31;;;11.53;100.00
9738;BME280;4908;47.446;13.900;2023-08-30T05:37:48;92111.94;;;11.47;100.00
9738;BME280;4908;47.446;13.900;2023-08-30T05:40:16;92116.00;;;11.59;100.00
9738;BME280;4908;47.446;13.900;2023-08-30T05:42:43;92108.72;;;11.59;100.00
9738;BME280;4908;47.446;13.900;2023-08-30T05:45:13;92115.69;;;11.53;100.00
9738;BME280;4908;47.446;13.900;2023-08-30T05:47:40;92115.94;;;11.32;100.00
9738;BME280;4908;47.446;13.900;2023-08-30T05:50:08;92112.91;;;11.30;100.00
9738;BME280;4908;47.446;13.900;2023-08-30T05:52:35;92110.50;;;11.39;100.00
9738;BME280;4908;47.446;13.900;2023-08-30T05:55:07;92111.06;;;11.24;100.00
9738;BME280;4908;47.446;13.900;2023-08-30T05:57:35;92112.91;;;11.30;100.00
9738;BME280;4908;47.446;13.900;2023-08-30T06:00:02;92109.06;;;11.31;100.00
9738;BME280;4908;47.446;13.900;2023-08-30T06:02:32;92116.88;;;11.49;100.00
9738;BME280;4908;47.446;13.900;2023-08-30T06:04:59;92117.84;;;11.65;100.00
9738;BME280;4908;47.446;13.900;2023-08-30T06:07:26;92120.59;;;11.58;100.00
9738;BME280;4908;47.446;13.900;2023-08-30T06:09:53;92118.78;;;11.52;100.00
9738;BME280;4908;47.446;13.900;2023-08-30T06:12:21;92116.69;;;11.66;100.00
9738;BME280;4908;47.446;13.900;2023-08-30T06:14:48;92117.56;;;11.87;100.00
9738;BME280;4908;47.446;13.900;2023-08-30T06:17:18;92128.91;;;11.98;100.00
9738;BME280;4908;47.446;13.900;2023-08-30T06:19:47;92127.00;;;11.68;100.00
9738;BME280;4908;47.446;13.900;2023-08-30T06:22:14;92133.31;;;11.51;100.00
9738;BME280;4908;47.446;13.900;2023-08-30T06:24:42;92128.13;;;11.70;100.00
9738;BME280;4908;47.446;13.900;2023-08-30T06:27:09;92127.44;;;11.93;100.00
9738;BME280;4908;47.446;13.900;2023-08-30T06:29:36;92128.47;;;11.73;100.00
9738;BME280;4908;47.446;13.900;2023-08-30T06:32:04;92137.38;;;11.62;100.00
9738;BME280;4908;47.446;13.900;2023-08-30T06:34:31;92143.25;;;11.54;100.00
9738;BME280;4908;47.446;13.900;2023-08-30T06:37:00;92144.56;;;11.73;100.00
9738;BME280;4908;47.446;13.900;2023-08-30T06:39:32;92141.34;;;11.85;100.00
9738;BME280;4908;47.446;13.900;2023-08-30T06:42:00;92141.25;;;11.92;100.00
9738;BME280;4908;47.446;13.900;2023-08-30T06:44:28;92143.69;;;11.83;100.00
9738;BME280;4908;47.446;13.900;2023-08-30T06:46:55;92135.88;;;11.92;100.00
9738;BME280;4908;47.446;13.900;2023-08-30T06:49:22;92133.25;;;12.15;100.00
9738;BME280;4908;47.446;13.900;2023-08-30T06:51:50;92136.84;;;12.31;100.00
9738;BME280;4908;47.446;13.900;2023-08-30T06:54:18;92139.72;;;12.44;100.00
9738;BME280;4908;47.446;13.900;2023-08-30T06:56:57;92140.78;;;12.50;100.00
9738;BME280;4908;47.446;13.900;2023-08-30T06:59:25;92138.22;;;12.66;100.00
9738;BME280;4908;47.446;13.900;2023-08-30T07:01:52;92139.44;;;12.61;100.00
9738;BME280;4908;47.446;13.900;2023-08-30T07:04:19;92137.94;;;12.84;100.00
9738;BME280;4908;47.446;13.900;2023-08-30T07:06:46;92141.53;;;12.74;100.00
9738;BME280;4908;47.446;13.900;2023-08-30T07:09:13;92138.22;;;12.43;100.00
9738;BME280;4908;47.446;13.900;2023-08-30T07:11:44;92138.50;;;12.72;100.00
9738;BME280;4908;47.446;13.900;2023-08-30T07:14:12;92137.72;;;12.94;100.00
9738;BME280;4908;47.446;13.900;2023-08-30T07:16:40;92136.69;;;12.88;100.00
9738;BME280;4908;47.446;13.900;2023-08-30T07:19:07;92141.25;;;12.68;100.00
9738;BME280;4908;47.446;13.900;2023-08-30T07:21:35;92135.16;;;12.87;100.00
9738;BME280;4908;47.446;13.900;2023-08-30T07:24:05;92138.34;;;13.05;100.00
9738;BME280;4908;47.446;13.900;2023-08-30T07:26:32;92141.59;;;13.16;100.00
9738;BME280;4908;47.446;13.900;2023-08-30T07:29:01;92145.88;;;13.33;100.00
9738;BME280;4908;47.446;13.900;2023-08-30T07:31:30;92145.47;;;13.15;100.00
9738;BME280;4908;47.446;13.900;2023-08-30T07:33:57;92153.19;;;13.33;100.00
9738;BME280;4908;47.446;13.900;2023-08-30T07:36:25;92146.78;;;13.46;100.00
9738;BME280;4908;47.446;13.900;2023-08-30T07:38:53;92148.31;;;13.47;100.00
9738;BME280;4908;47.446;13.900;2023-08-30T07:41:21;92149.66;;;12.93;100.00
9738;BME280;4908;47.446;13.900;2023-08-30T07:43:48;92150.88;;;13.12;100.00
9738;BME280;4908;47.446;13.900;2023-08-30T07:46:17;92152.91;;;13.27;100.00
9738;BME280;4908;47.446;13.900;2023-08-30T07:48:44;92151.50;;;13.42;100.00
9738;BME280;4908;47.446;13.900;2023-08-30T07:51:11;92153.88;;;13.57;100.00
9738;BME280;4908;47.446;13.900;2023-08-30T07:53:38;92152.09;;;13.70;100.00
9738;BME280;4908;47.446;13.900;2023-08-30T07:56:05;92158.50;;;13.76;100.00
9738;BME280;4908;47.446;13.900;2023-08-30T07:58:33;92158.22;;;13.90;100.00
9738;BME280;4908;47.446;13.900;2023-08-30T08:01:00;92160.19;;;14.05;100.00
9738;BME280;4908;47.446;13.900;2023-08-30T08:03:29;92159.38;;;14.24;100.00
9738;BME280;4908;47.446;13.900;2023-08-30T08:05:58;92158.34;;;14.38;100.00
9738;BME280;4908;47.446;13.900;2023-08-30T08:08:25;92168.13;;;14.48;100.00
9738;BME280;4908;47.446;13.900;2023-08-30T08:10:53;92172.69;;;14.67;100.00
9738;BME280;4908;47.446;13.900;2023-08-30T08:13:20;92174.22;;;14.84;100.00
9738;BME280;4908;47.446;13.900;2023-08-30T08:15:47;92179.44;;;14.91;100.00
9738;BME280;4908;47.446;13.900;2023-08-30T08:18:14;92184.50;;;14.89;100.00
9738;BME280;4908;47.446;13.900;2023-08-30T08:20:43;92190.66;;;14.90;100.00
9738;BME280;4908;47.446;13.900;2023-08-30T08:23:10;92188.19;;;15.11;100.00
9738;BME280;4908;47.446;13.900;2023-08-30T08:25:37;92187.81;;;15.25;100.00
9738;BME280;4908;47.446;13.900;2023-08-30T08:28:04;92191.34;;;15.39;100.00
9738;BME280;4908;47.446;13.900;2023-08-30T08:30:32;92191.00;;;15.53;100.00
9738;BME280;4908;47.446;13.900;2023-08-30T08:32:59;92192.50;;;15.70;100.00
9738;BME280;4908;47.446;13.900;2023-08-30T08:35:26;92191.94;;;15.75;100.00
9738;BME280;4908;47.446;13.900;2023-08-30T08:37:55;92188.97;;;15.57;100.00
9738;BME280;4908;47.446;13.900;2023-08-30T08:40:22;92191.38;;;15.06;100.00
9738;BME280;4908;47.446;13.900;2023-08-30T08:42:49;92193.88;;;15.29;100.00
9738;BME280;4908;47.446;13.900;2023-08-30T08:45:18;92191.91;;;14.85;100.00
9738;BME280;4908;47.446;13.900;2023-08-30T08:47:47;92197.38;;;14.98;100.00
9738;BME280;4908;47.446;13.900;2023-08-30T08:50:15;92195.91;;;14.61;100.00
9738;BME280;4908;47.446;13.900;2023-08-30T08:52:43;92198.81;;;14.86;100.00
9738;BME280;4908;47.446;13.900;2023-08-30T08:55:11;92194.59;;;15.01;100.00
9738;BME280;4908;47.446;13.900;2023-08-30T08:57:39;92192.91;;;15.07;100.00
9738;BME280;4908;47.446;13.900;2023-08-30T09:00:07;92203.50;;;15.14;100.00
9738;BME280;4908;47.446;13.900;2023-08-30T09:02:35;92203.50;;;15.14;100.00
9738;BME280;4908;47.446;13.900;2023-08-30T09:05:02;92207.91;;;15.24;100.00
9738;BME280;4908;47.446;13.900;2023-08-30T09:07:31;92206.94;;;15.31;100.00
9738;BME280;4908;47.446;13.900;2023-08-30T09:09:59;92207.38;;;15.46;100.00
9738;BME280;4908;47.446;13.900;2023-08-30T09:12:28;92207.22;;;15.20;100.00
9738;BME280;4908;47.446;13.900;2023-08-30T09:14:59;92205.00;;;15.48;100.00
9738;BME280;4908;47.446;13.900;2023-08-30T09:17:35;92206.19;;;15.31;100.00
9738;BME280;4908;47.446;13.900;2023-08-30T09:20:09;92205.69;;;15.19;100.00
9738;BME280;4908;47.446;13.900;2023-08-30T09:22:37;92210.41;;;15.32;100.00
9738;BME280;4908;47.446;13.900;2023-08-30T09:25:06;92206.56;;;15.16;100.00
9738;BME280;4908;47.446;13.900;2023-08-30T09:27:35;92199.31;;;15.13;100.00
9738;BME280;4908;47.446;13.900;2023-08-30T09:30:05;92195.28;;;15.05;100.00
9738;BME280;4908;47.446;13.900;2023-08-30T09:32:39;92194.25;;;15.15;100.00
9738;BME280;4908;47.446;13.900;2023-08-30T09:35:09;92206.78;;;15.38;100.00
9738;BME280;4908;47.446;13.900;2023-08-30T09:37:36;92198.75;;;15.51;100.00
9738;BME280;4908;47.446;13.900;2023-08-30T09:40:04;92211.47;;;15.66;100.00
9738;BME280;4908;47.446;13.900;2023-08-30T09:42:32;92208.47;;;15.48;100.00
9738;BME280;4908;47.446;13.900;2023-08-30T09:45:01;92208.72;;;15.54;100.00
9738;BME280;4908;47.446;13.900;2023-08-30T09:47:29;92209.38;;;15.58;100.00
9738;BME280;4908;47.446;13.900;2023-08-30T09:49:58;92204.25;;;15.76;100.00
9738;BME280;4908;47.446;13.900;2023-08-30T09:52:29;92210.31;;;15.80;100.00
9738;BME280;4908;47.446;13.900;2023-08-30T09:54:57;92213.19;;;16.01;100.00
9738;BME280;4908;47.446;13.900;2023-08-30T09:57:25;92210.50;;;16.01;100.00
9738;BME280;4908;47.446;13.900;2023-08-30T09:59:54;92217.72;;;15.92;100.00
9738;BME280;4908;47.446;13.900;2023-08-30T10:02:24;92217.69;;;15.79;100.00
9738;BME280;4908;47.446;13.900;2023-08-30T10:04:51;92202.56;;;15.82;100.00
9738;BME280;4908;47.446;13.900;2023-08-30T10:07:19;92207.38;;;15.74;100.00
9738;BME280;4908;47.446;13.900;2023-08-30T10:09:47;92206.25;;;15.59;100.00
9738;BME280;4908;47.446;13.900;2023-08-30T10:12:16;92206.53;;;15.33;100.00
9738;BME280;4908;47.446;13.900;2023-08-30T10:14:43;92208.16;;;15.46;100.00
9738;BME280;4908;47.446;13.900;2023-08-30T10:17:12;92208.72;;;15.54;100.00
9738;BME280;4908;47.446;13.900;2023-08-30T10:19:41;92195.31;;;15.79;100.00
9738;BME280;4908;47.446;13.900;2023-08-30T10:22:10;92196.78;;;15.96;100.00
9738;BME280;4908;47.446;13.900;2023-08-30T10:24:42;92198.09;;;16.04;100.00
9738;BME280;4908;47.446;13.900;2023-08-30T10:27:11;92197.16;;;16.23;100.00
9738;BME280;4908;47.446;13.900;2023-08-30T10:29:40;92187.50;;;16.51;100.00
9738;BME280;4908;47.446;13.900;2023-08-30T10:32:08;92186.53;;;16.82;100.00
9738;BME280;4908;47.446;13.900;2023-08-30T10:34:36;92181.13;;;16.82;100.00
9738;BME280;4908;47.446;13.900;2023-08-30T10:37:07;92182.25;;;17.07;100.00
9738;BME280;4908;47.446;13.900;2023-08-30T10:39:36;92173.16;;;17.13;100.00
9738;BME280;4908;47.446;13.900;2023-08-30T10:42:13;92180.53;;;17.47;100.00
9738;BME280;4908;47.446;13.900;2023-08-30T10:44:47;92168.88;;;17.50;100.00
9738;BME280;4908;47.446;13.900;2023-08-30T10:47:19;92181.22;;;17.72;100.00
9738;BME280;4908;47.446;13.900;2023-08-30T10:49:49;92176.72;;;17.91;100.00
9738;BME280;4908;47.446;13.900;2023-08-30T10:52:17;92174.31;;;17.93;100.00
9738;BME280;4908;47.446;13.900;2023-08-30T10:54:45;92172.94;;;18.10;100.00
9738;BME280;4908;47.446;13.900;2023-08-30T10:57:19;92173.69;;;18.11;100.00
9738;BME280;4908;47.446;13.900;2023-08-30T11:00:06;92177.44;;;18.35;100.00
9738;BME280;4908;47.446;13.900;2023-08-30T11:02:35;92175.56;;;18.44;100.00
9738;BME280;4908;47.446;13.900;2023-08-30T11:05:03;92185.25;;;18.33;100.00
9738;BME280;4908;47.446;13.900;2023-08-30T11:07:34;92178.78;;;18.09;100.00
9738;BME280;4908;47.446;13.900;2023-08-30T11:10:04;92181.25;;;17.94;100.00
9738;BME280;4908;47.446;13.900;2023-08-30T11:12:32;92182.78;;;17.95;100.00
9738;BME280;4908;47.446;13.900;2023-08-30T11:14:59;92178.34;;;17.88;100.00
9738;BME280;4908;47.446;13.900;2023-08-30T11:17:26;92177.09;;;17.80;100.00
9738;BME280;4908;47.446;13.900;2023-08-30T11:19:57;92181.88;;;17.76;100.00
9738;BME280;4908;47.446;13.900;2023-08-30T11:22:25;92179.44;;;17.57;100.00
9738;BME280;4908;47.446;13.900;2023-08-30T11:24:54;92181.53;;;17.53;100.00
9738;BME280;4908;47.446;13.900;2023-08-30T11:27:21;92177.13;;;17.34;100.00
9738;BME280;4908;47.446;13.900;2023-08-30T11:29:48;92179.44;;;17.10;100.00
9738;BME280;4908;47.446;13.900;2023-08-30T11:32:16;92183.47;;;17.06;100.00
9738;BME280;4908;47.446;13.900;2023-08-30T11:34:43;92184.97;;;17.07;100.00
9738;BME280;4908;47.446;13.900;2023-08-30T11:37:11;92178.69;;;17.10;100.00
9738;BME280;4908;47.446;13.900;2023-08-30T11:39:39;92170.91;;;17.12;100.00
9738;BME280;4908;47.446;13.900;2023-08-30T11:42:08;92168.22;;;16.99;100.00
9738;BME280;4908;47.446;13.900;2023-08-30T11:44:36;92180.44;;;16.91;100.00
9738;BME280;4908;47.446;13.900;2023-08-30T11:47:03;92171.78;;;16.83;100.00
9738;BME280;4908;47.446;13.900;2023-08-30T11:49:30;92174.84;;;16.60;100.00
9738;BME280;4908;47.446;13.900;2023-08-30T11:51:59;92175.91;;;16.50;100.00
9738;BME280;4908;47.446;13.900;2023-08-30T11:54:27;92178.31;;;16.61;100.00
9738;BME280;4908;47.446;13.900;2023-08-30T11:56:54;92181.66;;;16.52;100.00
9738;BME280;4908;47.446;13.900;2023-08-30T11:59:23;92187.66;;;16.31;100.00
9738;BME280;4908;47.446;13.900;2023-08-30T12:01:52;92177.19;;;16.33;100.00
9738;BME280;4908;47.446;13.900;2023-08-30T12:04:19;92179.47;;;15.93;100.00
9738;BME280;4908;47.446;13.900;2023-08-30T12:06:52;92185.75;;;16.03;100.00
9738;BME280;4908;47.446;13.900;2023-08-30T12:09:19;92183.41;;;15.64;100.00
9738;BME280;4908;47.446;13.900;2023-08-30T12:11:47;92180.53;;;15.55;100.00
9738;BME280;4908;47.446;13.900;2023-08-30T12:14:15;92186.09;;;15.64;100.00
9738;BME280;4908;47.446;13.900;2023-08-30T12:16:43;92185.59;;;15.53;100.00
9738;BME280;4908;47.446;13.900;2023-08-30T12:19:12;92182.72;;;15.60;100.00
9738;BME280;4908;47.446;13.900;2023-08-30T12:21:43;92180.47;;;15.99;100.00
9738;BME280;4908;47.446;13.900;2023-08-30T12:24:10;92185.13;;;15.99;100.00
9738;BME280;4908;47.446;13.900;2023-08-30T12:26:38;92183.38;;;16.05;100.00
9738;BME280;4908;47.446;13.900;2023-08-30T12:29:05;92184.16;;;16.05;100.00
9738;BME280;4908;47.446;13.900;2023-08-30T12:31:33;92187.41;;;15.72;100.00
9738;BME280;4908;47.446;13.900;2023-08-30T12:34:01;92185.19;;;15.83;100.00
9738;BME280;4908;47.446;13.900;2023-08-30T12:36:29;92174.31;;;15.99;100.00
9738;BME280;4908;47.446;13.900;2023-08-30T12:38:57;92192.81;;;16.13;100.00
9738;BME280;4908;47.446;13.900;2023-08-30T12:41:24;92184.19;;;16.18;100.00
9738;BME280;4908;47.446;13.900;2023-08-30T12:43:51;92175.59;;;16.48;100.00
9738;BME280;4908;47.446;13.900;2023-08-30T12:46:19;92173.53;;;16.52;100.00
9738;BME280;4908;47.446;13.900;2023-08-30T12:48:47;92177.28;;;16.30;100.00
9738;BME280;4908;47.446;13.900;2023-08-30T12:51:15;92178.31;;;16.07;100.00
9738;BME280;4908;47.446;13.900;2023-08-30T12:53:42;92182.00;;;16.13;100.00
9738;BME280;4908;47.446;13.900;2023-08-30T12:56:09;92177.44;;;15.97;100.00
9738;BME280;4908;47.446;13.900;2023-08-30T12:58:36;92172.91;;;16.07;100.00
9738;BME280;4908;47.446;13.900;2023-08-30T13:01:04;92175.31;;;16.17;100.00
9738;BME280;4908;47.446;13.900;2023-08-30T13:03:31;92174.38;;;16.24;100.00
9738;BME280;4908;47.446;13.900;2023-08-30T13:05:58;92174.56;;;16.17;100.00